createdAt,value
2023-01-27T00:01:16.820Z,-1.10
2023-01-27T00:03:44.149Z,-1.10
2023-01-27T00:06:12.219Z,-1.10
2023-01-27T00:08:39.679Z,-1.10
2023-01-27T00:11:25.382Z,-1.10
2023-01-27T00:13:52.426Z,-1.10
2023-01-27T00:16:19.797Z,-1.10
2023-01-27T00:18:47.164Z,-1.10
2023-01-27T00:29:13.770Z,-1.10
2023-01-27T00:31:59.591Z,-1.00
2023-01-27T00:36:54.308Z,-1.10
2023-01-27T00:39:21.275Z,-1.00
2023-01-27T00:44:15.954Z,-1.10
2023-01-27T00:46:43.430Z,-1.10
2023-01-27T00:49:13.194Z,-1.10
2023-01-27T00:51:40.888Z,-1.10
2023-01-27T00:54:08.275Z,-1.10
2023-01-27T00:56:35.527Z,-1.10
2023-01-27T00:59:03.898Z,-1.10
2023-01-27T01:01:33.846Z,-1.10
2023-01-27T01:04:01.543Z,-1.10
2023-01-27T01:06:28.806Z,-1.10
2023-01-27T01:08:59.375Z,-1.10
2023-01-27T01:11:27.558Z,-1.10
2023-01-27T01:13:56.449Z,-1.00
2023-01-27T01:16:25.748Z,-1.10
2023-01-27T01:18:54.033Z,-1.00
2023-01-27T01:21:21.332Z,-1.10
2023-01-27T01:23:48.564Z,-1.10
2023-01-27T01:26:17.669Z,-1.10
2023-01-27T01:28:46.704Z,-1.10
2023-01-27T01:31:20.496Z,-1.10
2023-01-27T01:33:49.024Z,-1.10
2023-01-27T01:36:21.640Z,-1.10
2023-01-27T01:38:49.488Z,-1.10
2023-01-27T01:41:20.634Z,-1.10
2023-01-27T01:43:50.135Z,-1.10
2023-01-27T01:46:19.437Z,-1.10
2023-01-27T01:49:01.197Z,-1.10
2023-01-27T01:51:43.403Z,-1.10
2023-01-27T01:54:30.322Z,-1.10
2023-01-27T01:57:34.182Z,-1.10
2023-01-27T02:00:10.593Z,-1.10
2023-01-27T02:02:41.825Z,-1.10
2023-01-27T02:05:42.862Z,-1.00
2023-01-27T02:08:29.911Z,-1.00
2023-01-27T02:10:58.202Z,-1.10
2023-01-27T02:15:55.745Z,-1.10
2023-01-27T02:18:22.855Z,-1.10
2023-01-27T02:20:54.223Z,-1.10
2023-01-27T02:24:01.999Z,-1.10
2023-01-27T02:26:35.277Z,-1.10
2023-01-27T02:29:11.710Z,-1.10
2023-01-27T02:31:39.297Z,-1.10
2023-01-27T02:34:22.861Z,-1.10
2023-01-27T02:36:59.018Z,-1.10
2023-01-27T02:39:35.590Z,-1.10
2023-01-27T02:42:07.612Z,-1.10
2023-01-27T02:44:35.361Z,-1.10
2023-01-27T02:47:03.429Z,-1.10
2023-01-27T02:49:30.490Z,-1.10
2023-01-27T02:51:57.586Z,-1.10
2023-01-27T02:54:28.212Z,-1.10
2023-01-27T02:59:25.510Z,-1.10
2023-01-27T03:01:52.846Z,-1.10
2023-01-27T03:06:47.782Z,-1.10
2023-01-27T03:09:14.897Z,-1.10
2023-01-27T03:12:00.748Z,-1.10
2023-01-27T03:14:47.970Z,-1.10
2023-01-27T03:17:34.470Z,-1.10
2023-01-27T03:20:11.807Z,-1.10
2023-01-27T03:25:07.532Z,-1.00
2023-01-27T03:27:36.471Z,-1.10
2023-01-27T03:30:40.207Z,-1.10
2023-01-27T03:36:14.134Z,-1.10
2023-01-27T03:39:08.587Z,-1.10
2023-01-27T03:44:44.290Z,-1.00
2023-01-27T03:49:38.933Z,-1.10
2023-01-27T03:52:06.087Z,-1.10
2023-01-27T03:54:33.045Z,-1.10
2023-01-27T03:57:05.993Z,-1.10
2023-01-27T04:02:21.355Z,-1.10
2023-01-27T04:07:37.344Z,-1.00
2023-01-27T04:10:06.430Z,-1.00
2023-01-27T04:12:33.419Z,-1.00
2023-01-27T04:15:00.455Z,-1.00
2023-01-27T04:17:27.763Z,-1.00
2023-01-27T04:19:54.751Z,-1.00
2023-01-27T04:22:21.822Z,-1.00
2023-01-27T04:24:50.071Z,-1.00
2023-01-27T04:27:18.780Z,-1.00
2023-01-27T04:29:45.851Z,-1.00
2023-01-27T04:32:14.074Z,-1.00
2023-01-27T04:34:42.489Z,-1.00
2023-01-27T04:37:10.521Z,-1.00
2023-01-27T04:39:39.541Z,-1.00
2023-01-27T04:42:06.532Z,-1.00
2023-01-27T04:44:33.577Z,-1.00
2023-01-27T04:47:00.564Z,-1.00
2023-01-27T04:49:27.709Z,-1.00
2023-01-27T04:51:55.486Z,-1.00
2023-01-27T04:54:22.665Z,-1.00
2023-01-27T04:57:03.533Z,-1.00
2023-01-27T05:01:59.111Z,-1.00
2023-01-27T05:04:26.915Z,-1.00
2023-01-27T05:06:54.654Z,-1.00
2023-01-27T05:11:49.383Z,-0.90
2023-01-27T05:14:16.418Z,-1.00
2023-01-27T05:16:43.507Z,-1.00
2023-01-27T05:19:10.606Z,-1.00
2023-01-27T05:21:38.158Z,-1.00
2023-01-27T05:24:05.474Z,-1.00
2023-01-27T05:26:32.759Z,-1.00
2023-01-27T05:29:00.097Z,-1.00
2023-01-27T05:31:34.298Z,-1.00
2023-01-27T05:34:02.574Z,-1.00
2023-01-27T05:36:30.751Z,-1.00
2023-01-27T05:38:59.385Z,-1.00
2023-01-27T05:41:31.043Z,-1.00
2023-01-27T05:43:58.170Z,-1.00
2023-01-27T05:46:30.077Z,-1.00
2023-01-27T05:49:06.449Z,-1.00
2023-01-27T05:51:39.477Z,-1.00
2023-01-27T05:54:07.767Z,-1.10
2023-01-27T05:56:35.314Z,-1.10
2023-01-27T05:59:02.311Z,-1.10
2023-01-27T06:01:34.113Z,-1.00
2023-01-27T06:04:01.661Z,-1.00
2023-01-27T06:06:32.831Z,-1.00
2023-01-27T06:12:02.380Z,-1.00
2023-01-27T06:16:56.790Z,-1.10
2023-01-27T06:19:25.834Z,-1.10
2023-01-27T06:21:52.925Z,-1.10
2023-01-27T06:24:20.064Z,-1.10
2023-01-27T06:26:47.176Z,-1.10
2023-01-27T06:29:16.325Z,-1.10
2023-01-27T06:31:43.440Z,-1.10
2023-01-27T06:34:10.514Z,-1.10
2023-01-27T06:36:37.521Z,-1.10
2023-01-27T06:39:04.542Z,-1.10
2023-01-27T06:43:58.908Z,-1.10
2023-01-27T06:48:53.462Z,-1.10
2023-01-27T06:53:47.901Z,-1.10
2023-01-27T06:58:44.527Z,-1.10
2023-01-27T07:01:11.876Z,-1.10
2023-01-27T07:03:39.336Z,-1.10
2023-01-27T07:11:06.172Z,-1.10
2023-01-27T07:13:33.244Z,-1.10
2023-01-27T07:16:00.380Z,-1.10
2023-01-27T07:18:27.599Z,-1.10
2023-01-27T07:20:54.594Z,-1.10
2023-01-27T07:25:49.383Z,-1.00
2023-01-27T07:28:16.623Z,-1.00
2023-01-27T07:30:43.997Z,-1.00
2023-01-27T07:33:15.157Z,-1.00
2023-01-27T07:35:42.804Z,-0.90
2023-01-27T07:38:13.503Z,-0.90
2023-01-27T07:40:40.823Z,-0.90
2023-01-27T07:48:07.601Z,-0.80
2023-01-27T07:50:36.318Z,-0.80
2023-01-27T07:53:05.409Z,-0.80
2023-01-27T07:55:33.595Z,-0.80
2023-01-27T07:58:00.691Z,-0.80
2023-01-27T08:00:28.936Z,-0.80
2023-01-27T08:03:00.218Z,-0.80
2023-01-27T08:05:29.220Z,-0.80
2023-01-27T08:07:58.831Z,-0.70
2023-01-27T08:10:30.553Z,-0.70
2023-01-27T08:12:57.831Z,-0.60
2023-01-27T08:17:57.330Z,-0.60
2023-01-27T08:20:27.529Z,-0.50
2023-01-27T08:27:56.306Z,-0.50
2023-01-27T08:30:24.476Z,-0.40
2023-01-27T08:32:51.566Z,-0.40
2023-01-27T08:37:48.755Z,-0.50
2023-01-27T08:40:17.306Z,-0.40
2023-01-27T08:45:12.149Z,-0.40
2023-01-27T08:50:08.155Z,-0.30
2023-01-27T08:55:02.611Z,-0.40
2023-01-27T09:03:49.845Z,-0.20
2023-01-27T09:06:17.485Z,-0.20
2023-01-27T09:09:12.368Z,-0.20
2023-01-27T09:11:44.531Z,-0.20
2023-01-27T09:14:12.785Z,-0.10
2023-01-27T09:16:40.007Z,-0.10
2023-01-27T09:21:34.848Z,0.00
2023-01-27T09:26:29.317Z,0.20
2023-01-27T09:28:57.207Z,0.30
2023-01-27T09:33:51.843Z,0.40
2023-01-27T09:36:21.907Z,0.30
2023-01-27T09:38:59.062Z,0.70
2023-01-27T09:41:59.296Z,0.20
2023-01-27T09:45:15.318Z,0.50
2023-01-27T09:48:13.091Z,0.50
2023-01-27T09:50:55.237Z,0.60
2023-01-27T09:54:12.648Z,0.70
2023-01-27T09:57:12.658Z,0.60
2023-01-27T10:00:03.997Z,0.60
2023-01-27T10:03:06.279Z,0.70
2023-01-27T10:06:19.860Z,0.70
2023-01-27T10:09:43.635Z,0.70
2023-01-27T10:12:40.272Z,0.70
2023-01-27T10:16:00.245Z,0.90
2023-01-27T10:19:20.383Z,3.50
2023-01-27T10:22:43.195Z,0.90
2023-01-27T10:25:53.239Z,1.10
2023-01-27T10:28:28.312Z,0.90
2023-01-27T10:31:27.274Z,0.70
2023-01-27T10:34:01.641Z,0.60
2023-01-27T10:36:43.309Z,0.70
2023-01-27T10:39:47.402Z,0.70
2023-01-27T10:43:03.676Z,0.70
2023-01-27T10:45:46.635Z,0.80
2023-01-27T10:49:04.555Z,0.80
2023-01-27T10:51:58.728Z,1.00
2023-01-27T10:54:53.786Z,1.10
2023-01-27T10:57:44.997Z,1.20
2023-01-27T11:01:17.738Z,1.30
2023-01-27T11:04:07.338Z,1.40
2023-01-27T11:06:45.928Z,1.30
2023-01-27T11:10:02.171Z,1.40
2023-01-27T11:12:43.417Z,1.60
2023-01-27T11:15:33.715Z,1.70
2023-01-27T11:18:25.603Z,1.40
2023-01-27T11:21:05.745Z,1.30
2023-01-27T11:23:48.910Z,1.20
2023-01-27T11:26:48.476Z,1.00
2023-01-27T11:29:50.507Z,0.90
2023-01-27T11:32:48.953Z,3.70
2023-01-27T11:35:16.534Z,1.00
2023-01-27T11:37:49.351Z,1.10
2023-01-27T11:40:38.324Z,1.00
2023-01-27T11:43:05.782Z,0.90
2023-01-27T11:45:37.192Z,0.80
2023-01-27T11:48:14.110Z,0.70
2023-01-27T11:50:44.166Z,0.80
2023-01-27T11:53:17.372Z,0.80
2023-01-27T11:56:03.603Z,0.70
2023-01-27T11:58:53.249Z,0.60
2023-01-27T12:01:36.700Z,0.60
2023-01-27T12:04:48.996Z,0.70
2023-01-27T12:07:42.358Z,0.80
2023-01-27T12:10:35.659Z,0.80
2023-01-27T12:13:23.882Z,0.90
2023-01-27T12:16:02.737Z,0.90
2023-01-27T12:18:35.666Z,0.80
2023-01-27T12:21:08.297Z,0.80
2023-01-27T12:23:48.075Z,0.90
2023-01-27T12:26:15.707Z,0.90
2023-01-27T12:28:45.643Z,0.80
2023-01-27T12:31:28.215Z,0.70
2023-01-27T12:34:16.795Z,0.80
2023-01-27T12:36:49.650Z,1.00
2023-01-27T12:39:39.471Z,0.90
2023-01-27T12:45:34.845Z,0.80
2023-01-27T12:48:07.447Z,0.90
2023-01-27T12:50:59.315Z,0.90
2023-01-27T12:53:28.047Z,0.80
2023-01-27T12:56:07.791Z,0.70
2023-01-27T12:58:45.907Z,0.70
2023-01-27T13:01:25.139Z,0.60
2023-01-27T13:04:05.495Z,0.60
2023-01-27T13:06:48.134Z,0.60
2023-01-27T13:09:47.164Z,0.60
2023-01-27T13:12:26.049Z,0.70
2023-01-27T13:15:08.924Z,0.70
2023-01-27T13:17:44.372Z,0.60
2023-01-27T13:20:39.852Z,0.70
2023-01-27T13:23:22.230Z,0.60
2023-01-27T13:26:04.257Z,0.60
2023-01-27T13:29:09.334Z,0.70
2023-01-27T13:32:28.060Z,0.60
2023-01-27T13:35:35.271Z,0.60
2023-01-27T13:38:23.192Z,0.60
2023-01-27T13:40:50.640Z,0.60
2023-01-27T13:44:01.190Z,0.60
2023-01-27T13:46:37.430Z,0.50
2023-01-27T13:49:22.013Z,0.40
2023-01-27T13:51:49.082Z,0.40
2023-01-27T13:54:16.223Z,0.40
2023-01-27T13:57:32.522Z,0.40
2023-01-27T14:00:32.574Z,0.30
2023-01-27T14:03:52.248Z,0.30
2023-01-27T14:07:19.581Z,0.30
2023-01-27T14:10:16.917Z,0.30
2023-01-27T14:13:29.950Z,0.20
2023-01-27T14:16:21.359Z,0.10
2023-01-27T14:19:33.142Z,0.20
2023-01-27T14:23:24.502Z,0.20
2023-01-27T14:26:28.035Z,0.20
2023-01-27T14:29:45.049Z,0.20
2023-01-27T14:33:01.640Z,0.20
2023-01-27T14:35:49.967Z,0.20
2023-01-27T14:38:32.642Z,0.20
2023-01-27T14:41:34.469Z,0.20
2023-01-27T14:47:06.427Z,0.20
2023-01-27T14:50:11.645Z,0.20
2023-01-27T14:53:23.089Z,0.20
2023-01-27T14:56:46.874Z,0.20
2023-01-27T15:00:10.492Z,0.20
2023-01-27T15:04:05.052Z,0.20
2023-01-27T15:06:49.683Z,0.10
2023-01-27T15:09:57.485Z,0.10
2023-01-27T15:13:18.843Z,0.10
2023-01-27T15:16:20.492Z,0.10
2023-01-27T15:19:13.555Z,0.10
2023-01-27T15:22:42.641Z,0.10
2023-01-27T15:25:47.868Z,0.00
2023-01-27T15:28:19.865Z,0.00
2023-01-27T15:31:15.529Z,0.00
2023-01-27T15:34:22.547Z,0.00
2023-01-27T15:37:20.776Z,0.00
2023-01-27T15:40:04.792Z,0.00
2023-01-27T15:42:57.522Z,0.00
2023-01-27T15:45:38.002Z,0.00
2023-01-27T15:48:20.113Z,0.00
2023-01-27T15:51:01.241Z,0.00
2023-01-27T15:53:37.471Z,0.00
2023-01-27T15:56:05.939Z,0.00
2023-01-27T15:58:40.504Z,0.00
2023-01-27T16:01:29.365Z,-0.10
2023-01-27T16:04:23.335Z,-0.10
2023-01-27T16:07:02.083Z,-0.10
2023-01-27T16:09:45.808Z,-0.10
2023-01-27T16:12:26.927Z,-0.10
2023-01-27T16:15:16.042Z,-0.10
2023-01-27T16:18:09.118Z,-0.10
2023-01-27T16:21:08.668Z,-0.10
2023-01-27T16:24:09.629Z,-0.10
2023-01-27T16:26:56.733Z,-0.10
2023-01-27T16:29:38.659Z,-0.20
2023-01-27T16:32:25.507Z,-0.20
2023-01-27T16:34:59.708Z,-0.20
2023-01-27T16:37:34.819Z,-0.20
2023-01-27T16:40:14.993Z,-0.30
2023-01-27T16:42:52.446Z,-0.30
2023-01-27T16:45:27.246Z,-0.30
2023-01-27T16:48:06.691Z,-0.30
2023-01-27T16:50:41.835Z,-0.30
2023-01-27T16:53:19.964Z,-0.30
2023-01-27T16:56:07.727Z,-0.30
2023-01-27T16:58:46.138Z,-0.30
2023-01-27T17:01:36.148Z,-0.40
2023-01-27T17:04:19.116Z,-1.30
2023-01-27T17:06:46.733Z,-0.40
2023-01-27T17:09:35.121Z,-0.40
2023-01-27T17:12:02.505Z,-0.40
2023-01-27T17:14:38.378Z,-0.40
2023-01-27T17:17:18.444Z,-0.40
2023-01-27T17:19:55.015Z,-0.40
2023-01-27T17:22:34.923Z,-0.40
2023-01-27T17:25:31.841Z,-0.40
2023-01-27T17:28:04.736Z,-0.40
2023-01-27T17:30:39.906Z,-0.40
2023-01-27T17:33:19.932Z,-0.40
2023-01-27T17:35:56.599Z,-0.50
2023-01-27T17:38:46.819Z,-0.40
2023-01-27T17:41:35.828Z,-0.50
2023-01-27T17:44:12.228Z,-0.50
2023-01-27T17:46:40.595Z,-0.50
2023-01-27T17:49:16.781Z,-0.50
2023-01-27T17:51:51.137Z,-0.50
2023-01-27T17:54:35.111Z,-0.50
2023-01-27T17:57:32.145Z,-0.50
2023-01-27T18:00:28.542Z,-0.50
2023-01-27T18:03:14.322Z,-0.50
2023-01-27T18:05:45.218Z,-0.50
2023-01-27T18:08:12.315Z,-0.50
2023-01-27T18:10:45.834Z,-0.50
2023-01-27T18:13:40.196Z,-0.50
2023-01-27T18:16:17.906Z,-0.50
2023-01-27T18:21:25.560Z,-0.50
2023-01-27T18:23:57.448Z,-0.50
2023-01-27T18:26:46.789Z,-0.60
2023-01-27T18:29:39.240Z,-0.60
2023-01-27T18:32:24.364Z,-0.60
2023-01-27T18:34:59.152Z,-0.60
2023-01-27T18:37:35.082Z,-0.60
2023-01-27T18:40:28.137Z,-0.60
2023-01-27T18:42:56.962Z,-0.60
2023-01-27T18:45:26.286Z,-0.60
2023-01-27T18:47:54.984Z,-0.60
2023-01-27T18:50:27.982Z,-0.60
2023-01-27T18:52:55.369Z,-0.60
2023-01-27T18:55:26.797Z,-0.60
2023-01-27T18:58:00.022Z,-0.60
2023-01-27T19:00:38.048Z,-0.60
2023-01-27T19:03:15.678Z,-0.60
2023-01-27T19:05:42.683Z,-0.60
2023-01-27T19:08:17.498Z,-0.60
2023-01-27T19:10:46.517Z,-0.60
2023-01-27T19:13:14.656Z,-0.60
2023-01-27T19:15:54.613Z,-0.60
2023-01-27T19:18:32.238Z,-0.60
2023-01-27T19:21:00.459Z,-0.60
2023-01-27T19:23:28.029Z,-0.70
2023-01-27T19:25:58.457Z,-0.70
2023-01-27T19:28:38.394Z,-0.70
2023-01-27T19:31:07.689Z,-0.70
2023-01-27T19:36:34.252Z,-0.70
2023-01-27T19:39:17.580Z,-0.70
2023-01-27T19:41:47.584Z,-0.70
2023-01-27T19:44:15.196Z,-0.70
2023-01-27T19:46:43.409Z,-0.70
2023-01-27T19:49:19.774Z,-0.60
2023-01-27T19:51:46.927Z,-0.70
2023-01-27T19:54:14.069Z,-0.70
2023-01-27T19:56:41.182Z,-0.70
2023-01-27T19:59:10.098Z,-0.70
2023-01-27T20:01:37.442Z,-0.70
2023-01-27T20:04:04.587Z,-0.60
2023-01-27T20:06:32.107Z,-0.60
2023-01-27T20:09:03.151Z,-0.70
2023-01-27T20:14:18.897Z,-0.70
2023-01-27T20:21:46.875Z,-0.70
2023-01-27T20:24:17.561Z,-0.60
2023-01-27T20:26:45.386Z,-0.60
2023-01-27T20:31:41.913Z,-0.60
2023-01-27T20:34:08.933Z,-0.60
2023-01-27T20:36:37.068Z,-0.60
2023-01-27T20:39:04.536Z,-0.60
2023-01-27T20:41:31.638Z,-0.60
2023-01-27T20:44:00.577Z,-0.60
2023-01-27T20:46:29.680Z,-0.60
2023-01-27T20:48:59.967Z,-0.50
2023-01-27T20:51:27.086Z,-0.60
2023-01-27T20:53:54.753Z,-0.50
2023-01-27T20:56:24.800Z,-0.50
2023-01-27T20:58:54.147Z,-0.50
2023-01-27T21:01:23.847Z,-0.50
2023-01-27T21:03:51.899Z,-0.50
2023-01-27T21:06:21.851Z,0.30
2023-01-27T21:08:50.038Z,-0.50
2023-01-27T21:11:21.277Z,-0.50
2023-01-27T21:13:49.734Z,-0.50
2023-01-27T21:21:29.507Z,-0.50
2023-01-27T21:24:00.330Z,-0.50
2023-01-27T21:26:27.831Z,-0.50
2023-01-27T21:28:56.162Z,-0.50
2023-01-27T21:33:51.617Z,-0.50
2023-01-27T21:36:19.624Z,-0.50
2023-01-27T21:41:38.773Z,-0.50
2023-01-27T21:44:34.790Z,-0.50
2023-01-27T21:47:02.828Z,-0.50
2023-01-27T21:49:30.138Z,-0.50
2023-01-27T21:51:57.226Z,-0.50
2023-01-27T21:54:24.352Z,-0.50
2023-01-27T22:01:46.337Z,-0.60
2023-01-27T22:04:13.356Z,-0.60
2023-01-27T22:06:40.431Z,-0.60
2023-01-27T22:09:07.481Z,-0.60
2023-01-27T22:11:34.711Z,-0.60
2023-01-27T22:14:01.702Z,-0.60
2023-01-27T22:16:29.795Z,-0.60
2023-01-27T22:18:56.794Z,-0.60
2023-01-27T22:21:23.848Z,-0.60
2023-01-27T22:23:50.894Z,-0.60
2023-01-27T22:28:48.348Z,-0.60
2023-01-27T22:31:15.518Z,-0.60
2023-01-27T22:33:42.537Z,-0.60
2023-01-27T22:38:38.796Z,-0.50
2023-01-27T22:43:33.401Z,-0.50
2023-01-27T22:46:03.279Z,-0.50
2023-01-27T22:48:31.602Z,-0.60
2023-01-27T22:51:04.929Z,-0.50
2023-01-27T22:53:32.687Z,-0.60
2023-01-27T22:56:04.058Z,-0.60
2023-01-27T22:58:31.814Z,-0.60
2023-01-27T23:00:58.922Z,-0.60
2023-01-27T23:03:26.232Z,-0.60
2023-01-27T23:05:53.325Z,-0.60
2023-01-27T23:08:20.645Z,-0.60
2023-01-27T23:10:48.881Z,-0.60
2023-01-27T23:13:16.298Z,-0.60
2023-01-27T23:18:11.633Z,-0.70
2023-01-27T23:20:41.474Z,-0.70
2023-01-27T23:23:10.851Z,-0.70
2023-01-27T23:25:45.032Z,-0.70
2023-01-27T23:28:15.971Z,-0.70
2023-01-27T23:30:49.648Z,-0.70
2023-01-27T23:33:20.111Z,-0.70
2023-01-27T23:35:47.748Z,-0.70
2023-01-27T23:38:31.237Z,-0.70
2023-01-27T23:41:13.486Z,-0.70
2023-01-27T23:43:40.873Z,-0.70
2023-01-27T23:46:08.075Z,-0.70
2023-01-27T23:51:13.725Z,-0.70
2023-01-27T23:56:13.837Z,-0.70
2023-01-27T23:58:40.915Z,-0.70
